createdAt,value
2023-09-02T00:03:44.863Z,7.53
2023-09-02T00:09:00.344Z,8.52
2023-09-02T00:14:08.574Z,7.90
2023-09-02T00:19:14.297Z,9.20
2023-09-02T00:24:19.816Z,8.45
2023-09-02T00:29:34.011Z,7.18
2023-09-02T00:34:55.268Z,9.65
2023-09-02T00:40:01.398Z,9.35
2023-09-02T00:52:05.127Z,9.38
2023-09-02T00:57:10.469Z,7.68
2023-09-02T01:02:18.794Z,10.23
2023-09-02T01:07:24.055Z,9.07
2023-09-02T01:12:33.097Z,11.82
2023-09-02T01:17:40.952Z,8.03
2023-09-02T01:23:16.191Z,5.97
2023-09-02T01:28:29.865Z,5.82
2023-09-02T01:33:36.339Z,8.25
2023-09-02T01:38:42.270Z,7.28
2023-09-02T01:43:50.162Z,9.80
2023-09-02T01:48:55.435Z,6.75
2023-09-02T01:54:01.610Z,6.40
2023-09-02T01:59:09.472Z,7.78
2023-09-02T02:04:19.909Z,7.93
2023-09-02T02:09:30.552Z,6.18
2023-09-02T02:14:38.819Z,6.35
2023-09-02T02:19:44.303Z,7.00
2023-09-02T02:24:49.461Z,9.60
2023-09-02T02:29:57.237Z,6.20
2023-09-02T02:35:02.531Z,6.57
2023-09-02T02:40:09.364Z,8.05
2023-09-02T02:45:17.279Z,6.45
2023-09-02T02:50:22.390Z,7.40
2023-09-02T02:55:27.559Z,7.35
2023-09-02T03:00:35.450Z,7.78
2023-09-02T03:05:41.141Z,6.68
2023-09-02T03:10:46.234Z,7.65
2023-09-02T03:15:55.881Z,8.40
2023-09-02T03:26:13.790Z,9.05
2023-09-02T03:31:21.770Z,7.68
2023-09-02T03:36:27.011Z,8.20
2023-09-02T03:41:32.693Z,9.70
2023-09-02T03:46:40.666Z,6.53
2023-09-02T03:51:46.521Z,6.80
2023-09-02T03:56:51.727Z,7.05
2023-09-02T04:01:59.506Z,7.43
2023-09-02T04:07:04.644Z,7.10
2023-09-02T04:12:10.503Z,6.65
2023-09-02T04:17:18.337Z,7.15
2023-09-02T04:22:23.488Z,6.60
2023-09-02T04:27:28.687Z,6.72
2023-09-02T04:32:38.147Z,6.97
2023-09-02T04:37:43.726Z,6.03
2023-09-02T04:42:48.936Z,6.78
2023-09-02T04:47:57.135Z,6.38
2023-09-02T04:53:03.125Z,8.70
2023-09-02T04:58:09.036Z,6.70
2023-09-02T05:03:17.061Z,7.28
2023-09-02T05:08:22.413Z,8.00
2023-09-02T05:13:27.582Z,8.65
2023-09-02T05:18:35.311Z,8.23
2023-09-02T05:23:40.395Z,8.50
2023-09-02T05:28:45.578Z,9.73
2023-09-02T05:33:53.433Z,7.88
2023-09-02T05:38:58.743Z,8.93
2023-09-02T05:44:04.045Z,8.25
2023-09-02T05:49:11.860Z,7.80
2023-09-02T05:54:17.124Z,8.63
2023-09-02T05:59:22.352Z,10.15
2023-09-02T06:04:30.312Z,15.15
2023-09-02T06:09:35.914Z,8.43
2023-09-02T06:14:41.162Z,9.70
2023-09-02T06:19:48.935Z,8.70
2023-09-02T06:24:54.049Z,7.60
2023-09-02T06:29:59.328Z,6.93
2023-09-02T06:35:09.524Z,8.93
2023-09-02T06:40:15.587Z,7.72
2023-09-02T06:45:21.227Z,6.88
2023-09-02T06:50:30.161Z,6.85
2023-09-02T06:55:35.823Z,6.93
2023-09-02T07:00:41.164Z,6.15
2023-09-02T07:05:49.095Z,5.03
2023-09-02T07:10:54.338Z,6.45
2023-09-02T07:16:03.708Z,5.78
2023-09-02T07:21:12.642Z,5.50
2023-09-02T07:26:17.988Z,6.63
2023-09-02T07:31:23.289Z,5.40
2023-09-02T07:36:31.145Z,5.63
2023-09-02T07:41:36.410Z,4.97
2023-09-02T07:46:41.631Z,14.55
2023-09-02T07:51:49.339Z,4.47
2023-09-02T07:56:54.551Z,15.13
2023-09-02T08:01:59.754Z,4.72
2023-09-02T08:07:07.934Z,3.28
2023-09-02T08:12:13.693Z,4.53
2023-09-02T08:17:21.041Z,3.22
2023-09-02T08:22:29.037Z,2.80
2023-09-02T08:27:34.288Z,2.90
2023-09-02T08:32:39.733Z,2.90
2023-09-02T08:37:47.741Z,2.83
2023-09-02T08:42:53.890Z,3.30
2023-09-02T08:48:04.922Z,2.15
2023-09-02T08:53:12.606Z,2.20
2023-09-02T08:58:18.677Z,2.63
2023-09-02T09:03:23.932Z,3.70
2023-09-02T09:08:33.625Z,3.03
2023-09-02T09:13:39.481Z,2.95
2023-09-02T09:18:44.882Z,3.00
2023-09-02T09:23:57.171Z,2.70
2023-09-02T09:29:03.253Z,2.65
2023-09-02T09:34:08.790Z,2.70
2023-09-02T09:39:16.738Z,2.85
2023-09-02T09:44:22.190Z,2.47
2023-09-02T09:49:28.135Z,2.60
2023-09-02T09:54:42.435Z,3.30
2023-09-02T09:59:55.877Z,2.65
2023-09-02T10:05:02.381Z,2.70
2023-09-02T10:10:10.958Z,2.22
2023-09-02T10:15:16.659Z,2.97
2023-09-02T10:20:22.087Z,4.70
2023-09-02T10:25:35.736Z,3.05
2023-09-02T10:30:45.490Z,2.85
2023-09-02T10:35:58.675Z,3.03
2023-09-02T10:41:14.166Z,3.28
2023-09-02T10:46:19.430Z,3.67
2023-09-02T10:51:25.309Z,3.25
2023-09-02T10:56:34.811Z,2.25
2023-09-02T11:01:47.391Z,3.13
2023-09-02T11:07:26.028Z,4.07
2023-09-02T11:12:34.862Z,3.13
2023-09-02T11:17:41.252Z,2.80
2023-09-02T11:22:56.225Z,2.70
2023-09-02T11:28:05.379Z,2.70
2023-09-02T11:33:11.193Z,2.53
2023-09-02T11:38:23.083Z,2.88
2023-09-02T11:43:32.903Z,3.17
2023-09-02T11:48:38.313Z,3.67
2023-09-02T11:53:47.400Z,2.85
2023-09-02T11:58:56.048Z,2.95
2023-09-02T12:04:01.391Z,2.85
2023-09-02T12:09:06.668Z,2.72
2023-09-02T12:14:15.760Z,3.22
2023-09-02T12:19:21.313Z,3.25
2023-09-02T12:24:26.593Z,3.10
2023-09-02T12:29:34.488Z,3.17
2023-09-02T12:34:43.182Z,3.45
2023-09-02T12:39:48.496Z,2.88
2023-09-02T12:44:58.922Z,3.30
2023-09-02T12:50:06.650Z,2.92
2023-09-02T12:55:12.167Z,3.28
2023-09-02T13:00:20.276Z,2.80
2023-09-02T13:05:25.457Z,3.33
2023-09-02T13:10:30.736Z,2.88
2023-09-02T13:15:38.971Z,2.80
2023-09-02T13:20:44.147Z,2.70
2023-09-02T13:25:50.871Z,2.90
2023-09-02T13:30:59.121Z,2.72
2023-09-02T13:36:06.729Z,2.47
2023-09-02T13:41:12.134Z,2.83
2023-09-02T13:46:23.183Z,2.90
2023-09-02T13:51:28.406Z,2.90
2023-09-02T13:56:33.641Z,2.97
2023-09-02T14:01:42.123Z,2.88
2023-09-02T14:06:47.321Z,2.90
2023-09-02T14:11:52.521Z,3.25
2023-09-02T14:17:00.483Z,2.88
2023-09-02T14:22:10.214Z,4.47
2023-09-02T14:27:27.966Z,2.85
2023-09-02T14:32:36.169Z,3.67
2023-09-02T14:42:46.536Z,4.03
2023-09-02T14:47:54.733Z,3.45
2023-09-02T14:58:04.858Z,3.95
2023-09-02T15:03:22.471Z,3.20
2023-09-02T15:08:29.831Z,3.92
2023-09-02T15:13:35.500Z,2.95
2023-09-02T15:18:43.348Z,3.33
2023-09-02T15:23:48.630Z,3.15
2023-09-02T15:28:53.920Z,3.50
2023-09-02T15:34:02.752Z,3.05
2023-09-02T15:39:12.093Z,3.60
2023-09-02T15:44:38.216Z,4.22
2023-09-02T15:49:46.209Z,3.20
2023-09-02T15:54:57.357Z,3.95
2023-09-02T16:00:04.547Z,3.10
2023-09-02T16:05:21.269Z,4.13
2023-09-02T16:10:26.810Z,3.67
2023-09-02T16:15:32.191Z,4.05
2023-09-02T16:20:40.022Z,5.05
2023-09-02T16:25:45.286Z,4.50
2023-09-02T16:30:50.892Z,4.07
2023-09-02T16:36:00.122Z,5.38
2023-09-02T16:41:07.716Z,4.82
2023-09-02T16:46:13.895Z,8.65
2023-09-02T16:51:25.441Z,11.88
2023-09-02T16:56:30.674Z,14.52
2023-09-02T17:01:36.862Z,8.63
2023-09-02T17:06:47.942Z,45.28
2023-09-02T17:11:53.230Z,20.13
2023-09-02T17:17:08.657Z,31.60
2023-09-02T17:22:17.377Z,22.33
2023-09-02T17:27:22.730Z,9.00
2023-09-02T17:32:28.041Z,27.63
2023-09-02T17:37:38.423Z,19.52
2023-09-02T17:42:44.259Z,16.15
2023-09-02T17:47:50.154Z,7.20
2023-09-02T17:52:58.041Z,6.20
2023-09-02T17:58:06.654Z,9.32
2023-09-02T18:03:11.937Z,15.00
2023-09-02T18:08:21.834Z,13.45
2023-09-02T18:13:27.266Z,9.48
2023-09-02T18:18:32.353Z,8.80
2023-09-02T18:23:40.111Z,21.17
2023-09-02T18:28:46.200Z,6.50
2023-09-02T18:33:53.879Z,11.38
2023-09-02T18:39:01.779Z,8.73
2023-09-02T18:44:07.111Z,15.98
2023-09-02T18:49:12.344Z,12.80
2023-09-02T18:54:20.273Z,8.48
2023-09-02T18:59:25.503Z,6.13
2023-09-02T19:04:30.777Z,5.90
2023-09-02T19:09:38.728Z,6.85
2023-09-02T19:14:43.968Z,6.40
2023-09-02T19:19:49.357Z,6.53
2023-09-02T19:24:57.197Z,7.95
2023-09-02T19:30:02.318Z,12.65
2023-09-02T19:35:10.691Z,7.38
2023-09-02T19:40:19.817Z,7.53
2023-09-02T19:45:25.955Z,6.72
2023-09-02T19:50:31.495Z,7.95
2023-09-02T19:55:39.317Z,12.00
2023-09-02T20:00:47.804Z,12.82
2023-09-02T20:05:53.045Z,16.10
2023-09-02T20:11:03.243Z,16.25
2023-09-02T20:16:08.665Z,17.38
2023-09-02T20:21:14.397Z,16.33
2023-09-02T20:26:23.448Z,13.10
2023-09-02T20:31:28.586Z,16.75
2023-09-02T20:36:33.791Z,17.92
2023-09-02T20:41:41.549Z,15.88
2023-09-02T20:46:46.760Z,15.05
2023-09-02T20:51:51.905Z,16.60
2023-09-02T20:56:59.898Z,22.50
2023-09-02T21:02:05.082Z,19.42
2023-09-02T21:07:10.240Z,15.02
2023-09-02T21:12:18.002Z,18.23
2023-09-02T21:17:23.155Z,24.90
2023-09-02T21:22:28.389Z,16.27
2023-09-02T21:27:36.373Z,41.00
2023-09-02T21:32:43.454Z,31.55
2023-09-02T21:37:49.799Z,26.25
2023-09-02T21:42:57.564Z,27.95
2023-09-02T21:48:02.869Z,20.73
2023-09-02T21:53:08.266Z,15.82
2023-09-02T21:58:15.939Z,15.95
2023-09-02T22:03:21.337Z,13.05
2023-09-02T22:08:26.729Z,14.80
2023-09-02T22:13:34.733Z,12.77
2023-09-02T22:18:42.697Z,15.13
2023-09-02T22:23:51.808Z,11.10
2023-09-02T22:28:59.588Z,10.35
2023-09-02T22:34:04.727Z,10.75
2023-09-02T22:39:10.486Z,11.65
2023-09-02T22:44:18.623Z,11.32
2023-09-02T22:49:26.854Z,10.73
2023-09-02T22:54:32.492Z,17.88
2023-09-02T22:59:43.086Z,8.52
2023-09-02T23:04:51.307Z,16.67
2023-09-02T23:09:57.491Z,11.88
2023-09-02T23:15:08.974Z,13.65
2023-09-02T23:20:17.618Z,17.77
2023-09-02T23:25:25.867Z,12.63
2023-09-02T23:30:33.869Z,11.13
2023-09-02T23:35:38.976Z,19.27
2023-09-02T23:40:44.725Z,18.23
2023-09-02T23:45:54.562Z,17.02
2023-09-02T23:51:00.626Z,17.42
2023-09-02T23:56:05.962Z,11.50
